sensor_id;sensor_type;location;lat;lon;timestamp;P1;durP1;ratioP1;P2;durP2;ratioP2
54430;SDS011;40342;52.998;5.862;2023-08-06T00:01:50;4.70;;;4.30;;
54430;SDS011;40342;52.998;5.862;2023-08-06T00:04:16;6.43;;;4.53;;
54430;SDS011;40342;52.998;5.862;2023-08-06T00:06:42;4.93;;;4.47;;
54430;SDS011;40342;52.998;5.862;2023-08-06T00:09:07;5.22;;;4.78;;
54430;SDS011;40342;52.998;5.862;2023-08-06T00:11:33;5.55;;;4.80;;
54430;SDS011;40342;52.998;5.862;2023-08-06T00:13:59;5.35;;;4.95;;
54430;SDS011;40342;52.998;5.862;2023-08-06T00:16:24;5.68;;;5.20;;
54430;SDS011;40342;52.998;5.862;2023-08-06T00:18:50;5.38;;;4.88;;
54430;SDS011;40342;52.998;5.862;2023-08-06T00:21:15;6.53;;;5.03;;
54430;SDS011;40342;52.998;5.862;2023-08-06T00:23:41;5.75;;;5.20;;
54430;SDS011;40342;52.998;5.862;2023-08-06T00:26:06;5.80;;;5.38;;
54430;SDS011;40342;52.998;5.862;2023-08-06T00:28:32;7.30;;;5.93;;
54430;SDS011;40342;52.998;5.862;2023-08-06T00:30:58;6.57;;;5.97;;
54430;SDS011;40342;52.998;5.862;2023-08-06T00:33:23;6.10;;;5.60;;
54430;SDS011;40342;52.998;5.862;2023-08-06T00:35:49;6.45;;;5.85;;
54430;SDS011;40342;52.998;5.862;2023-08-06T00:38:15;6.95;;;6.20;;
54430;SDS011;40342;52.998;5.862;2023-08-06T00:40:41;6.85;;;6.10;;
54430;SDS011;40342;52.998;5.862;2023-08-06T00:43:07;8.80;;;6.07;;
54430;SDS011;40342;52.998;5.862;2023-08-06T00:45:33;7.18;;;6.57;;
54430;SDS011;40342;52.998;5.862;2023-08-06T00:48:01;6.85;;;6.25;;
54430;SDS011;40342;52.998;5.862;2023-08-06T00:50:28;6.50;;;6.00;;
54430;SDS011;40342;52.998;5.862;2023-08-06T00:52:53;6.55;;;6.00;;
54430;SDS011;40342;52.998;5.862;2023-08-06T00:55:19;6.93;;;6.20;;
54430;SDS011;40342;52.998;5.862;2023-08-06T00:57:45;6.60;;;5.80;;
54430;SDS011;40342;52.998;5.862;2023-08-06T01:00:11;7.25;;;6.20;;
54430;SDS011;40342;52.998;5.862;2023-08-06T01:02:37;7.10;;;6.57;;
54430;SDS011;40342;52.998;5.862;2023-08-06T01:05:03;6.32;;;5.72;;
54430;SDS011;40342;52.998;5.862;2023-08-06T01:16:18;6.30;;;5.88;;
54430;SDS011;40342;52.998;5.862;2023-08-06T01:18:46;5.82;;;5.32;;
54430;SDS011;40342;52.998;5.862;2023-08-06T01:21:14;6.63;;;6.03;;
54430;SDS011;40342;52.998;5.862;2023-08-06T01:23:43;6.45;;;5.85;;
54430;SDS011;40342;52.998;5.862;2023-08-06T01:26:11;6.38;;;5.72;;
54430;SDS011;40342;52.998;5.862;2023-08-06T01:29:08;7.10;;;6.25;;
54430;SDS011;40342;52.998;5.862;2023-08-06T01:31:37;6.68;;;6.13;;
54430;SDS011;40342;52.998;5.862;2023-08-06T01:34:25;6.32;;;5.53;;
54430;SDS011;40342;52.998;5.862;2023-08-06T01:36:52;7.32;;;5.80;;
54430;SDS011;40342;52.998;5.862;2023-08-06T01:39:18;7.20;;;6.18;;
54430;SDS011;40342;52.998;5.862;2023-08-06T01:41:47;6.13;;;5.63;;
54430;SDS011;40342;52.998;5.862;2023-08-06T01:44:15;6.50;;;6.00;;
54430;SDS011;40342;52.998;5.862;2023-08-06T01:46:41;6.65;;;6.05;;
54430;SDS011;40342;52.998;5.862;2023-08-06T01:49:07;6.68;;;6.00;;
54430;SDS011;40342;52.998;5.862;2023-08-06T01:51:32;6.80;;;6.20;;
54430;SDS011;40342;52.998;5.862;2023-08-06T01:53:58;6.60;;;6.03;;
54430;SDS011;40342;52.998;5.862;2023-08-06T01:56:24;6.82;;;6.32;;
54430;SDS011;40342;52.998;5.862;2023-08-06T01:58:49;7.03;;;6.32;;
54430;SDS011;40342;52.998;5.862;2023-08-06T02:01:15;6.57;;;6.07;;
54430;SDS011;40342;52.998;5.862;2023-08-06T02:03:40;7.28;;;6.55;;
54430;SDS011;40342;52.998;5.862;2023-08-06T02:06:06;6.88;;;6.30;;
54430;SDS011;40342;52.998;5.862;2023-08-06T02:08:31;6.45;;;5.88;;
54430;SDS011;40342;52.998;5.862;2023-08-06T02:10:57;6.50;;;5.90;;
54430;SDS011;40342;52.998;5.862;2023-08-06T02:13:23;7.70;;;6.40;;
54430;SDS011;40342;52.998;5.862;2023-08-06T02:15:49;7.00;;;6.47;;
54430;SDS011;40342;52.998;5.862;2023-08-06T02:18:14;7.32;;;6.65;;
54430;SDS011;40342;52.998;5.862;2023-08-06T02:20:41;6.78;;;6.28;;
54430;SDS011;40342;52.998;5.862;2023-08-06T02:23:07;7.50;;;6.05;;
54430;SDS011;40342;52.998;5.862;2023-08-06T02:25:33;7.50;;;6.82;;
54430;SDS011;40342;52.998;5.862;2023-08-06T02:27:58;7.30;;;6.60;;
54430;SDS011;40342;52.998;5.862;2023-08-06T02:30:24;6.18;;;5.60;;
54430;SDS011;40342;52.998;5.862;2023-08-06T02:32:49;6.45;;;5.95;;
54430;SDS011;40342;52.998;5.862;2023-08-06T02:35:15;6.85;;;6.25;;
54430;SDS011;40342;52.998;5.862;2023-08-06T02:37:41;6.63;;;6.05;;
54430;SDS011;40342;52.998;5.862;2023-08-06T02:40:06;7.45;;;6.65;;
54430;SDS011;40342;52.998;5.862;2023-08-06T02:42:32;6.45;;;5.88;;
54430;SDS011;40342;52.998;5.862;2023-08-06T02:44:58;7.22;;;6.63;;
54430;SDS011;40342;52.998;5.862;2023-08-06T02:47:23;8.38;;;6.68;;
54430;SDS011;40342;52.998;5.862;2023-08-06T02:49:49;7.15;;;6.53;;
54430;SDS011;40342;52.998;5.862;2023-08-06T02:52:15;7.45;;;6.85;;
54430;SDS011;40342;52.998;5.862;2023-08-06T02:54:40;6.97;;;6.30;;
54430;SDS011;40342;52.998;5.862;2023-08-06T02:57:06;7.63;;;6.57;;
54430;SDS011;40342;52.998;5.862;2023-08-06T02:59:32;7.78;;;6.43;;
54430;SDS011;40342;52.998;5.862;2023-08-06T03:01:58;6.95;;;6.45;;
54430;SDS011;40342;52.998;5.862;2023-08-06T03:04:23;7.20;;;6.60;;
54430;SDS011;40342;52.998;5.862;2023-08-06T03:06:49;7.38;;;6.75;;
54430;SDS011;40342;52.998;5.862;2023-08-06T03:09:16;7.47;;;6.88;;
54430;SDS011;40342;52.998;5.862;2023-08-06T03:11:42;8.05;;;7.30;;
54430;SDS011;40342;52.998;5.862;2023-08-06T03:14:08;7.60;;;6.82;;
54430;SDS011;40342;52.998;5.862;2023-08-06T03:16:33;7.25;;;6.70;;
54430;SDS011;40342;52.998;5.862;2023-08-06T03:18:59;7.18;;;6.50;;
54430;SDS011;40342;52.998;5.862;2023-08-06T03:21:25;6.78;;;6.18;;
54430;SDS011;40342;52.998;5.862;2023-08-06T03:23:50;6.88;;;6.18;;
54430;SDS011;40342;52.998;5.862;2023-08-06T03:26:16;7.22;;;6.63;;
54430;SDS011;40342;52.998;5.862;2023-08-06T03:28:41;7.43;;;6.80;;
54430;SDS011;40342;52.998;5.862;2023-08-06T03:31:07;6.68;;;5.90;;
54430;SDS011;40342;52.998;5.862;2023-08-06T03:33:32;7.00;;;6.30;;
54430;SDS011;40342;52.998;5.862;2023-08-06T03:35:58;7.05;;;6.43;;
54430;SDS011;40342;52.998;5.862;2023-08-06T03:38:24;11.05;;;7.07;;
54430;SDS011;40342;52.998;5.862;2023-08-06T03:40:49;6.60;;;6.10;;
54430;SDS011;40342;52.998;5.862;2023-08-06T03:43:15;6.25;;;5.78;;
54430;SDS011;40342;52.998;5.862;2023-08-06T03:45:41;7.00;;;6.43;;
54430;SDS011;40342;52.998;5.862;2023-08-06T03:48:07;8.48;;;6.93;;
54430;SDS011;40342;52.998;5.862;2023-08-06T03:50:33;9.10;;;6.78;;
54430;SDS011;40342;52.998;5.862;2023-08-06T03:52:59;7.28;;;6.40;;
54430;SDS011;40342;52.998;5.862;2023-08-06T03:55:24;7.43;;;6.88;;
54430;SDS011;40342;52.998;5.862;2023-08-06T03:57:50;7.47;;;6.65;;
54430;SDS011;40342;52.998;5.862;2023-08-06T04:00:16;7.30;;;6.60;;
54430;SDS011;40342;52.998;5.862;2023-08-06T04:02:41;8.75;;;6.60;;
54430;SDS011;40342;52.998;5.862;2023-08-06T04:05:07;11.68;;;6.90;;
54430;SDS011;40342;52.998;5.862;2023-08-06T04:07:33;7.53;;;6.82;;
54430;SDS011;40342;52.998;5.862;2023-08-06T04:09:59;7.80;;;7.10;;
54430;SDS011;40342;52.998;5.862;2023-08-06T04:12:27;7.63;;;6.90;;
54430;SDS011;40342;52.998;5.862;2023-08-06T04:14:53;7.20;;;6.60;;
54430;SDS011;40342;52.998;5.862;2023-08-06T04:17:19;7.97;;;7.28;;
54430;SDS011;40342;52.998;5.862;2023-08-06T04:19:50;8.57;;;6.85;;
54430;SDS011;40342;52.998;5.862;2023-08-06T04:22:16;7.32;;;6.68;;
54430;SDS011;40342;52.998;5.862;2023-08-06T04:24:42;7.70;;;6.95;;
54430;SDS011;40342;52.998;5.862;2023-08-06T04:27:11;7.60;;;6.90;;
54430;SDS011;40342;52.998;5.862;2023-08-06T04:29:38;7.28;;;6.68;;
54430;SDS011;40342;52.998;5.862;2023-08-06T04:32:05;8.20;;;7.40;;
54430;SDS011;40342;52.998;5.862;2023-08-06T04:34:32;7.55;;;6.70;;
54430;SDS011;40342;52.998;5.862;2023-08-06T04:36:59;7.53;;;6.80;;
54430;SDS011;40342;52.998;5.862;2023-08-06T04:39:25;7.07;;;6.38;;
54430;SDS011;40342;52.998;5.862;2023-08-06T04:41:50;7.63;;;6.88;;
54430;SDS011;40342;52.998;5.862;2023-08-06T04:44:16;7.90;;;7.20;;
54430;SDS011;40342;52.998;5.862;2023-08-06T04:46:41;8.20;;;7.40;;
54430;SDS011;40342;52.998;5.862;2023-08-06T04:49:07;10.95;;;7.57;;
54430;SDS011;40342;52.998;5.862;2023-08-06T04:51:33;7.80;;;7.10;;
54430;SDS011;40342;52.998;5.862;2023-08-06T04:53:58;7.90;;;7.10;;
54430;SDS011;40342;52.998;5.862;2023-08-06T04:56:24;7.60;;;6.82;;
54430;SDS011;40342;52.998;5.862;2023-08-06T04:58:50;7.53;;;6.82;;
54430;SDS011;40342;52.998;5.862;2023-08-06T05:01:15;8.35;;;7.32;;
54430;SDS011;40342;52.998;5.862;2023-08-06T05:03:41;8.90;;;6.90;;
54430;SDS011;40342;52.998;5.862;2023-08-06T05:06:06;7.70;;;6.90;;
54430;SDS011;40342;52.998;5.862;2023-08-06T05:08:32;7.50;;;6.90;;
54430;SDS011;40342;52.998;5.862;2023-08-06T05:10:58;7.38;;;6.68;;
54430;SDS011;40342;52.998;5.862;2023-08-06T05:13:23;7.97;;;7.28;;
54430;SDS011;40342;52.998;5.862;2023-08-06T05:15:50;7.70;;;7.10;;
54430;SDS011;40342;52.998;5.862;2023-08-06T05:18:16;7.03;;;6.43;;
54430;SDS011;40342;52.998;5.862;2023-08-06T05:20:42;7.25;;;6.55;;
54430;SDS011;40342;52.998;5.862;2023-08-06T05:23:08;8.05;;;7.00;;
54430;SDS011;40342;52.998;5.862;2023-08-06T05:25:34;8.07;;;7.25;;
54430;SDS011;40342;52.998;5.862;2023-08-06T05:28:00;7.38;;;6.78;;
54430;SDS011;40342;52.998;5.862;2023-08-06T05:30:26;10.80;;;7.63;;
54430;SDS011;40342;52.998;5.862;2023-08-06T05:32:52;7.07;;;6.57;;
54430;SDS011;40342;52.998;5.862;2023-08-06T05:35:18;7.55;;;6.85;;
54430;SDS011;40342;52.998;5.862;2023-08-06T05:37:43;7.40;;;6.72;;
54430;SDS011;40342;52.998;5.862;2023-08-06T05:40:09;7.40;;;6.70;;
54430;SDS011;40342;52.998;5.862;2023-08-06T05:42:35;7.40;;;6.78;;
54430;SDS011;40342;52.998;5.862;2023-08-06T05:45:00;8.15;;;7.35;;
54430;SDS011;40342;52.998;5.862;2023-08-06T05:47:26;8.50;;;7.07;;
54430;SDS011;40342;52.998;5.862;2023-08-06T05:49:51;7.13;;;6.50;;
54430;SDS011;40342;52.998;5.862;2023-08-06T05:52:17;8.30;;;7.10;;
54430;SDS011;40342;52.998;5.862;2023-08-06T05:54:42;7.40;;;6.80;;
54430;SDS011;40342;52.998;5.862;2023-08-06T05:57:08;6.47;;;6.07;;
54430;SDS011;40342;52.998;5.862;2023-08-06T05:59:34;7.43;;;6.85;;
54430;SDS011;40342;52.998;5.862;2023-08-06T06:01:59;7.72;;;6.97;;
54430;SDS011;40342;52.998;5.862;2023-08-06T06:04:25;7.95;;;7.18;;
54430;SDS011;40342;52.998;5.862;2023-08-06T06:06:50;7.90;;;7.00;;
54430;SDS011;40342;52.998;5.862;2023-08-06T06:09:16;7.43;;;6.80;;
54430;SDS011;40342;52.998;5.862;2023-08-06T06:11:41;6.95;;;6.45;;
54430;SDS011;40342;52.998;5.862;2023-08-06T06:14:07;8.02;;;7.25;;
54430;SDS011;40342;52.998;5.862;2023-08-06T06:16:33;8.23;;;7.63;;
54430;SDS011;40342;52.998;5.862;2023-08-06T06:18:59;8.13;;;7.50;;
54430;SDS011;40342;52.998;5.862;2023-08-06T06:21:25;7.88;;;7.28;;
54430;SDS011;40342;52.998;5.862;2023-08-06T06:23:50;8.07;;;7.18;;
54430;SDS011;40342;52.998;5.862;2023-08-06T06:26:18;10.85;;;7.57;;
54430;SDS011;40342;52.998;5.862;2023-08-06T06:28:44;7.10;;;6.60;;
54430;SDS011;40342;52.998;5.862;2023-08-06T06:31:09;7.00;;;6.35;;
54430;SDS011;40342;52.998;5.862;2023-08-06T06:33:35;9.50;;;7.57;;
54430;SDS011;40342;52.998;5.862;2023-08-06T06:36:01;7.80;;;7.00;;
54430;SDS011;40342;52.998;5.862;2023-08-06T06:38:29;7.15;;;6.60;;
54430;SDS011;40342;52.998;5.862;2023-08-06T06:40:58;9.82;;;7.47;;
54430;SDS011;40342;52.998;5.862;2023-08-06T06:43:24;8.00;;;7.32;;
54430;SDS011;40342;52.998;5.862;2023-08-06T06:45:53;7.78;;;7.07;;
54430;SDS011;40342;52.998;5.862;2023-08-06T06:48:20;7.90;;;7.25;;
54430;SDS011;40342;52.998;5.862;2023-08-06T06:50:49;7.60;;;6.90;;
54430;SDS011;40342;52.998;5.862;2023-08-06T06:53:15;9.30;;;7.10;;
54430;SDS011;40342;52.998;5.862;2023-08-06T06:55:40;7.65;;;7.03;;
54430;SDS011;40342;52.998;5.862;2023-08-06T06:58:06;7.18;;;6.47;;
54430;SDS011;40342;52.998;5.862;2023-08-06T07:00:31;7.00;;;6.50;;
54430;SDS011;40342;52.998;5.862;2023-08-06T07:02:57;7.03;;;6.43;;
54430;SDS011;40342;52.998;5.862;2023-08-06T07:05:22;7.47;;;6.78;;
54430;SDS011;40342;52.998;5.862;2023-08-06T07:07:48;7.50;;;6.82;;
54430;SDS011;40342;52.998;5.862;2023-08-06T07:10:14;7.15;;;6.32;;
54430;SDS011;40342;52.998;5.862;2023-08-06T07:12:39;6.50;;;6.00;;
54430;SDS011;40342;52.998;5.862;2023-08-06T07:15:05;7.78;;;6.97;;
54430;SDS011;40342;52.998;5.862;2023-08-06T07:17:31;7.03;;;6.32;;
54430;SDS011;40342;52.998;5.862;2023-08-06T07:19:57;7.13;;;6.43;;
54430;SDS011;40342;52.998;5.862;2023-08-06T07:22:22;8.02;;;6.75;;
54430;SDS011;40342;52.998;5.862;2023-08-06T07:24:48;6.47;;;5.85;;
54430;SDS011;40342;52.998;5.862;2023-08-06T07:27:13;6.47;;;5.85;;
54430;SDS011;40342;52.998;5.862;2023-08-06T07:29:39;6.75;;;6.10;;
54430;SDS011;40342;52.998;5.862;2023-08-06T07:32:06;6.60;;;6.00;;
54430;SDS011;40342;52.998;5.862;2023-08-06T07:34:32;6.97;;;6.32;;
54430;SDS011;40342;52.998;5.862;2023-08-06T07:36:58;6.55;;;6.05;;
54430;SDS011;40342;52.998;5.862;2023-08-06T07:39:23;6.75;;;6.15;;
54430;SDS011;40342;52.998;5.862;2023-08-06T07:41:49;7.05;;;6.38;;
54430;SDS011;40342;52.998;5.862;2023-08-06T07:44:15;6.82;;;6.22;;
54430;SDS011;40342;52.998;5.862;2023-08-06T07:46:40;6.38;;;5.88;;
54430;SDS011;40342;52.998;5.862;2023-08-06T07:49:06;8.07;;;5.88;;
54430;SDS011;40342;52.998;5.862;2023-08-06T07:51:32;7.00;;;6.15;;
54430;SDS011;40342;52.998;5.862;2023-08-06T07:53:57;6.05;;;5.43;;
54430;SDS011;40342;52.998;5.862;2023-08-06T07:56:23;7.60;;;5.97;;
54430;SDS011;40342;52.998;5.862;2023-08-06T07:58:49;6.50;;;5.85;;
54430;SDS011;40342;52.998;5.862;2023-08-06T08:01:14;6.47;;;5.82;;
54430;SDS011;40342;52.998;5.862;2023-08-06T08:03:40;6.65;;;6.15;;
54430;SDS011;40342;52.998;5.862;2023-08-06T08:06:05;6.35;;;5.75;;
54430;SDS011;40342;52.998;5.862;2023-08-06T08:08:31;6.03;;;5.53;;
54430;SDS011;40342;52.998;5.862;2023-08-06T08:10:57;7.13;;;6.43;;
54430;SDS011;40342;52.998;5.862;2023-08-06T08:13:24;6.85;;;6.15;;
54430;SDS011;40342;52.998;5.862;2023-08-06T08:15:49;6.95;;;6.25;;
54430;SDS011;40342;52.998;5.862;2023-08-06T08:18:15;7.45;;;5.97;;
54430;SDS011;40342;52.998;5.862;2023-08-06T08:20:40;7.00;;;6.30;;
54430;SDS011;40342;52.998;5.862;2023-08-06T08:23:06;6.30;;;5.50;;
54430;SDS011;40342;52.998;5.862;2023-08-06T08:25:32;6.65;;;6.13;;
54430;SDS011;40342;52.998;5.862;2023-08-06T08:27:59;7.85;;;5.97;;
54430;SDS011;40342;52.998;5.862;2023-08-06T08:30:24;9.00;;;5.57;;
54430;SDS011;40342;52.998;5.862;2023-08-06T08:32:50;5.95;;;5.35;;
54430;SDS011;40342;52.998;5.862;2023-08-06T08:35:16;5.78;;;5.05;;
54430;SDS011;40342;52.998;5.862;2023-08-06T08:37:42;6.38;;;5.82;;
54430;SDS011;40342;52.998;5.862;2023-08-06T08:40:08;5.75;;;5.20;;
54430;SDS011;40342;52.998;5.862;2023-08-06T08:42:35;5.80;;;5.40;;
54430;SDS011;40342;52.998;5.862;2023-08-06T08:45:01;6.05;;;5.38;;
54430;SDS011;40342;52.998;5.862;2023-08-06T08:47:29;6.15;;;5.65;;
54430;SDS011;40342;52.998;5.862;2023-08-06T08:49:56;6.15;;;5.55;;
54430;SDS011;40342;52.998;5.862;2023-08-06T08:52:22;5.85;;;5.35;;
54430;SDS011;40342;52.998;5.862;2023-08-06T08:54:50;6.18;;;5.03;;
54430;SDS011;40342;52.998;5.862;2023-08-06T08:57:18;5.20;;;4.80;;
54430;SDS011;40342;52.998;5.862;2023-08-06T08:59:45;5.47;;;5.07;;
54430;SDS011;40342;52.998;5.862;2023-08-06T09:02:11;7.95;;;5.00;;
54430;SDS011;40342;52.998;5.862;2023-08-06T09:04:40;5.32;;;4.82;;
54430;SDS011;40342;52.998;5.862;2023-08-06T09:07:07;4.70;;;4.30;;
54430;SDS011;40342;52.998;5.862;2023-08-06T09:09:34;5.00;;;4.60;;
54430;SDS011;40342;52.998;5.862;2023-08-06T09:12:14;4.50;;;4.13;;
54430;SDS011;40342;52.998;5.862;2023-08-06T09:14:40;4.72;;;3.85;;
54430;SDS011;40342;52.998;5.862;2023-08-06T09:17:06;4.18;;;3.88;;
54430;SDS011;40342;52.998;5.862;2023-08-06T09:19:32;3.97;;;3.58;;
54430;SDS011;40342;52.998;5.862;2023-08-06T09:21:58;3.80;;;3.50;;
54430;SDS011;40342;52.998;5.862;2023-08-06T09:24:24;4.32;;;3.90;;
54430;SDS011;40342;52.998;5.862;2023-08-06T09:26:51;3.13;;;2.90;;
54430;SDS011;40342;52.998;5.862;2023-08-06T09:29:17;3.00;;;2.75;;
54430;SDS011;40342;52.998;5.862;2023-08-06T09:31:46;3.17;;;2.97;;
54430;SDS011;40342;52.998;5.862;2023-08-06T09:34:17;4.80;;;2.83;;
54430;SDS011;40342;52.998;5.862;2023-08-06T09:36:50;3.17;;;2.70;;
54430;SDS011;40342;52.998;5.862;2023-08-06T09:39:17;8.25;;;2.67;;
54430;SDS011;40342;52.998;5.862;2023-08-06T09:41:44;2.67;;;2.10;;
54430;SDS011;40342;52.998;5.862;2023-08-06T09:44:15;4.40;;;2.80;;
54430;SDS011;40342;52.998;5.862;2023-08-06T09:46:53;2.80;;;2.13;;
54430;SDS011;40342;52.998;5.862;2023-08-06T09:49:22;2.28;;;2.08;;
54430;SDS011;40342;52.998;5.862;2023-08-06T09:51:52;1.80;;;1.67;;
54430;SDS011;40342;52.998;5.862;2023-08-06T09:54:20;1.77;;;1.67;;
54430;SDS011;40342;52.998;5.862;2023-08-06T09:56:47;2.28;;;1.85;;
54430;SDS011;40342;52.998;5.862;2023-08-06T09:59:13;3.28;;;2.05;;
54430;SDS011;40342;52.998;5.862;2023-08-06T10:01:40;3.10;;;1.83;;
54430;SDS011;40342;52.998;5.862;2023-08-06T10:04:06;1.73;;;1.63;;
54430;SDS011;40342;52.998;5.862;2023-08-06T10:06:33;1.88;;;1.77;;
54430;SDS011;40342;52.998;5.862;2023-08-06T10:09:05;3.03;;;1.83;;
54430;SDS011;40342;52.998;5.862;2023-08-06T10:11:32;3.08;;;1.88;;
54430;SDS011;40342;52.998;5.862;2023-08-06T10:14:00;2.72;;;2.15;;
54430;SDS011;40342;52.998;5.862;2023-08-06T10:16:33;2.35;;;2.00;;
54430;SDS011;40342;52.998;5.862;2023-08-06T10:19:00;3.17;;;1.88;;
54430;SDS011;40342;52.998;5.862;2023-08-06T10:21:28;2.25;;;1.80;;
54430;SDS011;40342;52.998;5.862;2023-08-06T10:23:55;3.28;;;1.90;;
54430;SDS011;40342;52.998;5.862;2023-08-06T10:26:24;1.98;;;1.70;;
54430;SDS011;40342;52.998;5.862;2023-08-06T10:28:53;2.10;;;1.90;;
54430;SDS011;40342;52.998;5.862;2023-08-06T10:31:20;1.83;;;1.73;;
54430;SDS011;40342;52.998;5.862;2023-08-06T10:34:05;1.75;;;1.65;;
54430;SDS011;40342;52.998;5.862;2023-08-06T10:36:32;4.47;;;1.90;;
54430;SDS011;40342;52.998;5.862;2023-08-06T10:38:58;3.05;;;1.67;;
54430;SDS011;40342;52.998;5.862;2023-08-06T10:41:27;1.60;;;1.50;;
54430;SDS011;40342;52.998;5.862;2023-08-06T10:44:07;1.80;;;1.70;;
54430;SDS011;40342;52.998;5.862;2023-08-06T10:46:33;1.77;;;1.65;;
54430;SDS011;40342;52.998;5.862;2023-08-06T10:48:59;4.28;;;1.77;;
54430;SDS011;40342;52.998;5.862;2023-08-06T10:51:25;3.05;;;1.90;;
54430;SDS011;40342;52.998;5.862;2023-08-06T10:53:52;1.60;;;1.50;;
54430;SDS011;40342;52.998;5.862;2023-08-06T10:56:19;2.35;;;1.50;;
54430;SDS011;40342;52.998;5.862;2023-08-06T10:58:49;2.08;;;1.67;;
54430;SDS011;40342;52.998;5.862;2023-08-06T11:01:16;1.38;;;1.27;;
54430;SDS011;40342;52.998;5.862;2023-08-06T11:03:43;1.60;;;1.50;;
54430;SDS011;40342;52.998;5.862;2023-08-06T11:06:10;2.03;;;1.58;;
54430;SDS011;40342;52.998;5.862;2023-08-06T11:08:40;1.52;;;1.42;;
54430;SDS011;40342;52.998;5.862;2023-08-06T11:11:14;1.63;;;1.30;;
54430;SDS011;40342;52.998;5.862;2023-08-06T11:13:40;1.55;;;1.45;;
54430;SDS011;40342;52.998;5.862;2023-08-06T11:16:11;2.15;;;1.50;;
54430;SDS011;40342;52.998;5.862;2023-08-06T11:18:41;5.45;;;1.60;;
54430;SDS011;40342;52.998;5.862;2023-08-06T11:21:07;3.60;;;1.85;;
54430;SDS011;40342;52.998;5.862;2023-08-06T11:23:34;4.25;;;1.90;;
54430;SDS011;40342;52.998;5.862;2023-08-06T11:26:00;1.80;;;1.70;;
54430;SDS011;40342;52.998;5.862;2023-08-06T11:28:26;3.22;;;1.77;;
54430;SDS011;40342;52.998;5.862;2023-08-06T11:30:52;3.20;;;1.70;;
54430;SDS011;40342;52.998;5.862;2023-08-06T11:33:26;2.53;;;2.05;;
54430;SDS011;40342;52.998;5.862;2023-08-06T11:35:53;1.98;;;1.27;;
54430;SDS011;40342;52.998;5.862;2023-08-06T11:38:21;3.75;;;1.80;;
54430;SDS011;40342;52.998;5.862;2023-08-06T11:40:49;3.95;;;1.80;;
54430;SDS011;40342;52.998;5.862;2023-08-06T11:43:15;3.03;;;1.67;;
54430;SDS011;40342;52.998;5.862;2023-08-06T11:45:43;3.05;;;1.50;;
54430;SDS011;40342;52.998;5.862;2023-08-06T11:48:09;3.15;;;1.83;;
54430;SDS011;40342;52.998;5.862;2023-08-06T11:50:38;3.05;;;1.70;;
54430;SDS011;40342;52.998;5.862;2023-08-06T11:53:04;3.67;;;1.70;;
54430;SDS011;40342;52.998;5.862;2023-08-06T11:55:30;3.80;;;2.03;;
54430;SDS011;40342;52.998;5.862;2023-08-06T11:57:56;3.40;;;1.70;;
54430;SDS011;40342;52.998;5.862;2023-08-06T12:00:25;1.52;;;1.30;;
54430;SDS011;40342;52.998;5.862;2023-08-06T12:02:51;1.88;;;1.63;;
54430;SDS011;40342;52.998;5.862;2023-08-06T12:05:37;4.70;;;1.83;;
54430;SDS011;40342;52.998;5.862;2023-08-06T12:08:03;3.35;;;1.63;;
54430;SDS011;40342;52.998;5.862;2023-08-06T12:10:29;1.90;;;1.73;;
54430;SDS011;40342;52.998;5.862;2023-08-06T12:12:56;4.75;;;1.92;;
54430;SDS011;40342;52.998;5.862;2023-08-06T12:15:22;2.50;;;1.67;;
54430;SDS011;40342;52.998;5.862;2023-08-06T12:17:48;2.10;;;1.90;;
54430;SDS011;40342;52.998;5.862;2023-08-06T12:20:14;2.60;;;1.77;;
54430;SDS011;40342;52.998;5.862;2023-08-06T12:22:40;3.03;;;1.65;;
54430;SDS011;40342;52.998;5.862;2023-08-06T12:25:06;2.50;;;1.65;;
54430;SDS011;40342;52.998;5.862;2023-08-06T12:27:43;1.83;;;1.73;;
54430;SDS011;40342;52.998;5.862;2023-08-06T12:30:10;2.40;;;1.60;;
54430;SDS011;40342;52.998;5.862;2023-08-06T12:32:37;1.50;;;1.40;;
54430;SDS011;40342;52.998;5.862;2023-08-06T12:35:03;7.95;;;1.50;;
54430;SDS011;40342;52.998;5.862;2023-08-06T12:37:30;2.08;;;1.63;;
54430;SDS011;40342;52.998;5.862;2023-08-06T12:39:55;1.80;;;1.70;;
54430;SDS011;40342;52.998;5.862;2023-08-06T12:42:21;3.50;;;1.90;;
54430;SDS011;40342;52.998;5.862;2023-08-06T12:44:49;3.88;;;1.60;;
54430;SDS011;40342;52.998;5.862;2023-08-06T12:47:15;1.67;;;1.58;;
54430;SDS011;40342;52.998;5.862;2023-08-06T12:49:41;1.95;;;1.60;;
54430;SDS011;40342;52.998;5.862;2023-08-06T12:52:07;3.72;;;1.90;;
54430;SDS011;40342;52.998;5.862;2023-08-06T12:54:34;3.47;;;2.08;;
54430;SDS011;40342;52.998;5.862;2023-08-06T12:57:03;4.57;;;2.05;;
54430;SDS011;40342;52.998;5.862;2023-08-06T12:59:29;2.72;;;2.20;;
54430;SDS011;40342;52.998;5.862;2023-08-06T13:01:55;4.70;;;2.50;;
54430;SDS011;40342;52.998;5.862;2023-08-06T13:04:21;2.92;;;2.67;;
54430;SDS011;40342;52.998;5.862;2023-08-06T13:06:46;5.35;;;2.60;;
54430;SDS011;40342;52.998;5.862;2023-08-06T13:09:12;5.90;;;2.85;;
54430;SDS011;40342;52.998;5.862;2023-08-06T13:11:39;2.85;;;2.65;;
54430;SDS011;40342;52.998;5.862;2023-08-06T13:14:06;6.50;;;2.92;;
54430;SDS011;40342;52.998;5.862;2023-08-06T13:16:34;3.38;;;3.08;;
54430;SDS011;40342;52.998;5.862;2023-08-06T13:19:00;3.42;;;3.13;;
54430;SDS011;40342;52.998;5.862;2023-08-06T13:21:32;3.30;;;3.00;;
54430;SDS011;40342;52.998;5.862;2023-08-06T13:23:59;3.33;;;3.08;;
54430;SDS011;40342;52.998;5.862;2023-08-06T13:26:27;4.13;;;3.35;;
54430;SDS011;40342;52.998;5.862;2023-08-06T13:28:53;6.80;;;3.25;;
54430;SDS011;40342;52.998;5.862;2023-08-06T13:31:19;3.45;;;3.15;;
54430;SDS011;40342;52.998;5.862;2023-08-06T13:33:44;3.80;;;3.50;;
54430;SDS011;40342;52.998;5.862;2023-08-06T13:36:10;8.68;;;4.05;;
54430;SDS011;40342;52.998;5.862;2023-08-06T13:38:35;3.80;;;3.50;;
54430;SDS011;40342;52.998;5.862;2023-08-06T13:41:01;3.88;;;3.58;;
54430;SDS011;40342;52.998;5.862;2023-08-06T13:43:27;4.30;;;3.40;;
54430;SDS011;40342;52.998;5.862;2023-08-06T13:45:53;5.45;;;3.88;;
54430;SDS011;40342;52.998;5.862;2023-08-06T13:48:18;3.72;;;3.25;;
54430;SDS011;40342;52.998;5.862;2023-08-06T13:50:44;5.35;;;3.47;;
54430;SDS011;40342;52.998;5.862;2023-08-06T13:53:10;3.72;;;3.42;;
54430;SDS011;40342;52.998;5.862;2023-08-06T13:55:35;4.85;;;3.65;;
54430;SDS011;40342;52.998;5.862;2023-08-06T13:58:01;4.03;;;3.38;;
54430;SDS011;40342;52.998;5.862;2023-08-06T14:00:26;3.00;;;2.45;;
54430;SDS011;40342;52.998;5.862;2023-08-06T14:02:52;4.28;;;2.35;;
54430;SDS011;40342;52.998;5.862;2023-08-06T14:05:17;5.35;;;1.92;;
54430;SDS011;40342;52.998;5.862;2023-08-06T14:07:43;2.65;;;1.90;;
54430;SDS011;40342;52.998;5.862;2023-08-06T14:10:09;3.10;;;1.80;;
54430;SDS011;40342;52.998;5.862;2023-08-06T14:12:34;2.13;;;1.67;;
54430;SDS011;40342;52.998;5.862;2023-08-06T14:15:00;2.22;;;1.80;;
54430;SDS011;40342;52.998;5.862;2023-08-06T14:17:27;1.70;;;1.60;;
54430;SDS011;40342;52.998;5.862;2023-08-06T14:19:53;4.20;;;1.83;;
54430;SDS011;40342;52.998;5.862;2023-08-06T14:22:19;2.20;;;1.50;;
54430;SDS011;40342;52.998;5.862;2023-08-06T14:24:44;7.93;;;2.25;;
54430;SDS011;40342;52.998;5.862;2023-08-06T14:27:12;6.13;;;2.67;;
54430;SDS011;40342;52.998;5.862;2023-08-06T14:29:37;4.05;;;2.60;;
54430;SDS011;40342;52.998;5.862;2023-08-06T14:32:03;2.80;;;2.58;;
54430;SDS011;40342;52.998;5.862;2023-08-06T14:34:29;6.20;;;2.80;;
54430;SDS011;40342;52.998;5.862;2023-08-06T14:36:55;6.03;;;2.75;;
54430;SDS011;40342;52.998;5.862;2023-08-06T14:39:20;2.65;;;2.45;;
54430;SDS011;40342;52.998;5.862;2023-08-06T14:41:46;2.55;;;2.10;;
54430;SDS011;40342;52.998;5.862;2023-08-06T14:44:12;4.47;;;2.22;;
54430;SDS011;40342;52.998;5.862;2023-08-06T14:46:37;1.70;;;1.60;;
54430;SDS011;40342;52.998;5.862;2023-08-06T14:49:03;2.00;;;1.85;;
54430;SDS011;40342;52.998;5.862;2023-08-06T14:51:28;2.28;;;1.73;;
54430;SDS011;40342;52.998;5.862;2023-08-06T14:53:54;2.47;;;2.00;;